Cluj, România

03:04 PM EEST on iulie 26, 2016 (GMT +0300)
Someseni | | Change Station

Elev 1033 ft 46.78 °N, 23.68 °E | Updated 4 minutes ago

Mostly Cloudy
Cer în general noros
75 °F
Feels Like 75 °F
N
23
Vânt variabil Vânt from VSV

astăzi
High -- | Low -- °F
--% Chance of Precip.
Ieri
High -- | Low -- °F
Precip. -- inch
Presiunea 30.01 inch
Vizibilitatea 6.2 mile
Nori Cer în general noros 4100 ft
Cer în general noros 5000 ft
Punctul de rouă 61 °F
Umiditatea 61%
Precipitaţii 0.00 inch
Adâncimea zăpezii Not available.
5:58 AM 9:04 PM
Lună în descreştere, 55% visible
METAR LRCL 261200Z 25020KT 9999 VCTS BKN041CB BKN050 24/16 Q1016
Presiunea 30.01 inch
Vizibilitatea 6.2 mile
Nori Cer în general noros 4100 ft
Cer în general noros 5000 ft
Punctul de rouă 61 °F
Umiditatea 61%
Precipitaţii 0.00 inch
Adâncimea zăpezii Not available.
5:58 AM 9:04 PM
Lună în descreştere, 55% visible
METAR LRCL 261200Z 25020KT 9999 VCTS BKN041CB BKN050 24/16 Q1016

10-Day Weather Forecast

×

Almanac

Astronomie

Jul. 26, 2016 Răsărit Apus
Timpul Actual
Crepusculul Civil
Crepusculul nautic
Răsărit Astronomic
Luna
Durata zilei lumină
Lungimea zilei
Tomorrow will be .
, % of the Moon is Illuminated

Extremele de azi

Country Highs Country Lows

Community

WunderPhotos

Upload Photos

1,927,580 photos uploaded!

WunderBlog® & News

Nearby

Calitatea aerului

  Calitatea aerului Index de calitate a aerului Poluat
Not available.

Adâncimea zapezii

Station Depth Elevation

Earthquake Activity

Oraş Distance Mag. Time & Date
Minimum magnitude displayed is 2.5.

Coastal Water Temperatures

Locul Temperatura

Stations

Nearby Weather Stations

Locaţia staţiei Temp Vânt rece Punctul de rouă Umiditatea Vânt Precip. Elev Actualizare Type